Terminal Aerodrome Forecast
Issued by NWS Bismarck, ND

Home | Current Version | Previous Version | Text Only | Print | Product List | Glossary Off
Versions: 1 2 3 4 5 6 7 8 9 10 11 12 13 14 15

000
FTUS43 KBIS 021136
TAFISN
TAF
KISN 021136Z 0212/0312 28015KT P6SM SCT100
     FM021500 32016KT P6SM SCT090
     FM021900 36016KT P6SM SCT090
     FM022300 02008KT P6SM SKC
     FM030300 VRB04KT P6SM FEW250=

USA.gov is the U.S. government's official web portal to all federal, state and local government web resources and services.